createdAt,value
2023-05-02T00:00:55.521Z,12.60
2023-05-02T00:03:22.864Z,13.52
2023-05-02T00:05:49.914Z,13.40
2023-05-02T00:08:16.760Z,11.80
2023-05-02T00:10:43.362Z,11.40
2023-05-02T00:13:10.123Z,12.10
2023-05-02T00:15:36.742Z,13.77
2023-05-02T00:18:03.532Z,12.87
2023-05-02T00:20:30.216Z,12.63
2023-05-02T00:22:59.562Z,12.93
2023-05-02T00:25:26.195Z,14.13
2023-05-02T00:27:52.968Z,12.55
2023-05-02T00:30:21.029Z,12.30
2023-05-02T00:32:47.743Z,17.33
2023-05-02T00:35:14.385Z,14.03
2023-05-02T00:37:41.166Z,14.30
2023-05-02T00:40:08.318Z,12.50
2023-05-02T00:42:36.557Z,11.63
2023-05-02T00:45:06.319Z,12.90
2023-05-02T00:47:33.383Z,13.43
2023-05-02T00:50:01.212Z,13.13
2023-05-02T00:52:28.961Z,12.07
2023-05-02T00:54:56.492Z,12.80
2023-05-02T00:57:23.407Z,12.43
2023-05-02T00:59:50.941Z,12.77
2023-05-02T01:02:32.378Z,13.87
2023-05-02T01:05:16.899Z,12.17
2023-05-02T01:07:51.838Z,16.70
2023-05-02T01:10:37.737Z,11.20
2023-05-02T01:13:27.676Z,11.33
2023-05-02T01:15:58.205Z,16.07
2023-05-02T01:18:28.054Z,11.87
2023-05-02T01:21:01.249Z,12.30
2023-05-02T01:23:57.080Z,13.70
2023-05-02T01:26:41.185Z,13.60
2023-05-02T01:29:09.742Z,13.63
2023-05-02T01:31:40.725Z,12.80
2023-05-02T01:34:12.710Z,13.10
2023-05-02T01:36:44.304Z,13.97
2023-05-02T01:39:15.890Z,14.67
2023-05-02T01:41:43.533Z,12.03
2023-05-02T01:44:11.896Z,12.27
2023-05-02T01:46:42.011Z,12.57
2023-05-02T01:49:09.213Z,12.30
2023-05-02T01:51:40.814Z,12.17
2023-05-02T01:54:08.965Z,13.17
2023-05-02T01:56:39.193Z,12.97
2023-05-02T01:59:09.112Z,12.47
2023-05-02T02:01:38.031Z,18.27
2023-05-02T02:04:08.579Z,13.60
2023-05-02T02:06:35.969Z,14.97
2023-05-02T02:09:03.652Z,13.13
2023-05-02T02:11:59.841Z,12.50
2023-05-02T02:14:33.487Z,13.67
2023-05-02T02:17:02.469Z,14.60
2023-05-02T02:19:30.445Z,12.70
2023-05-02T02:21:58.720Z,13.63
2023-05-02T02:24:26.768Z,12.80
2023-05-02T02:26:53.591Z,13.17
2023-05-02T02:29:20.343Z,17.83
2023-05-02T02:31:46.956Z,16.10
2023-05-02T02:34:13.625Z,13.53
2023-05-02T02:36:48.150Z,15.07
2023-05-02T02:39:20.778Z,16.07
2023-05-02T02:41:59.289Z,14.97
2023-05-02T02:44:28.608Z,14.50
2023-05-02T02:47:12.060Z,15.57
2023-05-02T02:49:53.930Z,23.90
2023-05-02T02:53:00.373Z,41.57
2023-05-02T02:55:30.068Z,50.80
2023-05-02T02:58:07.267Z,62.67
2023-05-02T03:00:35.393Z,97.97
2023-05-02T03:03:02.125Z,86.90
2023-05-02T03:05:29.684Z,96.20
2023-05-02T03:07:58.866Z,102.50
2023-05-02T03:10:25.737Z,104.67
2023-05-02T03:12:55.481Z,97.07
2023-05-02T03:15:36.815Z,96.20
2023-05-02T03:18:03.735Z,102.67
2023-05-02T03:20:30.457Z,103.10
2023-05-02T03:22:57.050Z,102.53
2023-05-02T03:25:23.805Z,92.67
2023-05-02T03:27:50.375Z,102.83
2023-05-02T03:30:16.972Z,92.77
2023-05-02T03:32:43.641Z,91.60
2023-05-02T03:35:10.408Z,100.50
2023-05-02T03:37:37.009Z,91.10
2023-05-02T03:40:03.939Z,103.20
2023-05-02T03:42:30.575Z,110.70
2023-05-02T03:44:57.329Z,104.03
2023-05-02T03:47:23.958Z,113.17
2023-05-02T03:49:52.698Z,116.97
2023-05-02T03:52:19.372Z,113.10
2023-05-02T03:54:46.694Z,115.43
2023-05-02T03:57:13.294Z,118.20
2023-05-02T03:59:41.643Z,105.83
2023-05-02T04:02:09.001Z,115.30
2023-05-02T04:04:36.287Z,109.40
2023-05-02T04:07:03.171Z,122.57
2023-05-02T04:09:29.930Z,134.03
2023-05-02T04:11:56.655Z,136.00
2023-05-02T04:14:23.362Z,131.47
2023-05-02T04:16:50.499Z,119.80
2023-05-02T04:19:18.856Z,132.47
2023-05-02T04:21:45.988Z,122.93
2023-05-02T04:24:13.595Z,112.23
2023-05-02T04:26:40.438Z,110.40
2023-05-02T04:29:07.233Z,119.43
2023-05-02T04:31:34.253Z,113.70
2023-05-02T04:34:01.134Z,105.47
2023-05-02T04:36:28.326Z,135.33
2023-05-02T04:38:55.085Z,112.17
2023-05-02T04:41:21.820Z,113.20
2023-05-02T04:43:48.520Z,101.83
2023-05-02T04:46:16.197Z,107.73
2023-05-02T04:48:42.883Z,111.53
2023-05-02T04:51:10.340Z,100.03
2023-05-02T04:53:37.769Z,103.87
2023-05-02T04:56:04.654Z,92.83
2023-05-02T04:58:31.305Z,95.57
2023-05-02T05:00:58.024Z,97.50
2023-05-02T05:03:24.980Z,99.80
2023-05-02T05:05:51.684Z,91.63
2023-05-02T05:08:18.676Z,85.80
2023-05-02T05:10:45.352Z,86.60
2023-05-02T05:13:13.728Z,83.43
2023-05-02T05:15:40.469Z,74.30
2023-05-02T05:18:07.113Z,75.67
2023-05-02T05:20:33.885Z,65.13
2023-05-02T05:23:00.588Z,73.03
2023-05-02T05:25:30.160Z,68.30
2023-05-02T05:27:56.982Z,76.37
2023-05-02T05:30:23.648Z,66.80
2023-05-02T05:32:50.371Z,70.57
2023-05-02T05:35:17.268Z,72.40
2023-05-02T05:37:44.679Z,69.93
2023-05-02T05:40:11.500Z,77.87
2023-05-02T05:42:38.098Z,80.70
2023-05-02T05:45:05.039Z,75.83
2023-05-02T05:47:31.835Z,85.43
2023-05-02T05:49:58.729Z,75.73
2023-05-02T05:52:25.842Z,79.83
2023-05-02T05:54:59.640Z,72.53
2023-05-02T05:57:26.396Z,79.70
2023-05-02T05:59:53.036Z,86.00
2023-05-02T06:02:20.121Z,70.17
2023-05-02T06:04:46.934Z,71.43
2023-05-02T06:07:13.779Z,77.30
2023-05-02T06:09:40.439Z,66.20
2023-05-02T06:12:07.178Z,62.90
2023-05-02T06:14:33.753Z,67.60
2023-05-02T06:17:00.737Z,59.10
2023-05-02T06:19:27.514Z,59.97
2023-05-02T06:21:54.208Z,56.83
2023-05-02T06:24:20.825Z,62.80
2023-05-02T06:26:47.592Z,65.80
2023-05-02T06:29:14.210Z,56.30
2023-05-02T06:31:41.013Z,60.60
2023-05-02T06:34:08.720Z,55.57
2023-05-02T06:36:35.284Z,62.07
2023-05-02T06:39:01.855Z,59.87
2023-05-02T06:41:28.470Z,60.80
2023-05-02T06:43:55.808Z,61.40
2023-05-02T06:46:22.586Z,53.00
2023-05-02T06:48:49.295Z,54.80
2023-05-02T06:51:15.930Z,54.97
2023-05-02T06:53:42.558Z,64.27
2023-05-02T06:56:09.261Z,62.80
2023-05-02T06:58:35.910Z,51.33
2023-05-02T07:01:02.559Z,51.87
2023-05-02T07:03:29.311Z,56.07
2023-05-02T07:05:55.906Z,56.70
2023-05-02T07:08:23.918Z,53.53
2023-05-02T07:10:50.788Z,61.90
2023-05-02T07:13:17.408Z,63.53
2023-05-02T07:15:44.072Z,54.83
2023-05-02T07:18:11.305Z,56.57
2023-05-02T07:20:38.885Z,59.37
2023-05-02T07:23:05.591Z,60.13
2023-05-02T07:25:32.291Z,55.13
2023-05-02T07:27:58.946Z,57.20
2023-05-02T07:30:25.742Z,55.13
2023-05-02T07:32:52.348Z,54.40
2023-05-02T07:35:18.935Z,49.00
2023-05-02T07:37:45.671Z,48.47
2023-05-02T07:40:12.423Z,45.10
2023-05-02T07:42:41.141Z,48.73
2023-05-02T07:45:08.485Z,42.00
2023-05-02T07:47:35.214Z,50.73
2023-05-02T07:50:04.071Z,45.43
2023-05-02T07:52:30.789Z,44.50
2023-05-02T07:54:57.404Z,42.60
2023-05-02T07:57:24.051Z,42.17
2023-05-02T07:59:51.078Z,38.63
2023-05-02T08:02:20.114Z,39.90
2023-05-02T08:04:47.890Z,35.93
2023-05-02T08:07:14.580Z,33.97
2023-05-02T08:09:41.215Z,38.00
2023-05-02T08:12:07.862Z,36.57
2023-05-02T08:14:34.721Z,34.93
2023-05-02T08:17:01.502Z,37.70
2023-05-02T08:19:28.194Z,36.63
2023-05-02T08:21:55.298Z,37.03
2023-05-02T08:24:22.435Z,35.17
2023-05-02T08:26:49.053Z,33.20
2023-05-02T08:29:15.665Z,30.00
2023-05-02T08:31:42.410Z,29.77
2023-05-02T08:34:09.167Z,32.20
2023-05-02T08:36:37.233Z,34.30
2023-05-02T08:39:03.895Z,33.30
2023-05-02T08:41:33.374Z,32.90
2023-05-02T08:44:00.757Z,35.17
2023-05-02T08:46:28.451Z,33.90
2023-05-02T08:48:58.946Z,36.40
2023-05-02T08:51:28.901Z,36.23
2023-05-02T08:53:57.129Z,26.97
2023-05-02T08:56:25.129Z,26.73
2023-05-02T08:58:51.816Z,27.40
2023-05-02T09:01:22.652Z,26.03
2023-05-02T09:03:49.711Z,23.33
2023-05-02T09:06:19.207Z,24.00
2023-05-02T09:08:49.267Z,23.53
2023-05-02T09:11:17.168Z,23.73
2023-05-02T09:13:47.439Z,25.13
2023-05-02T09:16:16.741Z,23.77
2023-05-02T09:18:48.268Z,23.27
2023-05-02T09:21:21.177Z,23.73
2023-05-02T09:23:53.323Z,24.50
2023-05-02T09:26:20.025Z,23.00
2023-05-02T09:28:51.837Z,22.53
2023-05-02T09:31:43.607Z,24.97
2023-05-02T09:34:14.536Z,23.67
2023-05-02T09:36:46.143Z,19.60
2023-05-02T09:39:17.668Z,19.33
2023-05-02T09:41:46.681Z,21.23
2023-05-02T09:44:17.039Z,21.50
2023-05-02T09:46:48.965Z,22.53
2023-05-02T09:49:19.989Z,25.67
2023-05-02T09:51:48.237Z,24.60
2023-05-02T09:54:34.019Z,22.80
2023-05-02T09:57:01.881Z,22.30
2023-05-02T09:59:28.509Z,20.97
2023-05-02T10:01:57.201Z,21.10
2023-05-02T10:04:25.369Z,21.57
2023-05-02T10:06:53.540Z,23.20
2023-05-02T10:09:21.784Z,20.87
2023-05-02T10:11:53.890Z,21.37
2023-05-02T10:14:22.595Z,22.23
2023-05-02T10:17:04.882Z,24.57
2023-05-02T10:19:41.676Z,25.53
2023-05-02T10:22:09.100Z,23.50
2023-05-02T10:24:36.753Z,21.57
2023-05-02T10:27:05.460Z,23.20
2023-05-02T10:29:33.069Z,21.07
2023-05-02T10:32:01.077Z,27.23
2023-05-02T10:34:27.923Z,21.90
2023-05-02T10:37:01.298Z,19.90
2023-05-02T10:39:32.113Z,20.10
2023-05-02T10:42:00.695Z,20.30
2023-05-02T10:44:38.904Z,20.23
2023-05-02T10:47:25.131Z,20.53
2023-05-02T10:49:56.617Z,22.80
2023-05-02T10:52:36.698Z,20.73
2023-05-02T10:55:23.828Z,19.57
2023-05-02T10:58:08.651Z,21.37
2023-05-02T11:00:35.369Z,19.43
2023-05-02T11:03:02.582Z,19.60
2023-05-02T11:05:29.617Z,20.83
2023-05-02T11:08:15.237Z,17.90
2023-05-02T11:10:42.094Z,19.47
2023-05-02T11:13:08.749Z,22.37
2023-05-02T11:15:41.391Z,21.70
2023-05-02T11:18:12.792Z,23.70
2023-05-02T11:20:41.452Z,23.90
2023-05-02T11:23:14.400Z,27.00
2023-05-02T11:26:03.304Z,23.40
2023-05-02T11:28:48.695Z,29.93
2023-05-02T11:31:53.083Z,26.63
2023-05-02T11:34:19.969Z,28.67
2023-05-02T11:36:46.556Z,28.80
2023-05-02T11:39:20.902Z,29.43
2023-05-02T11:41:50.934Z,27.87
2023-05-02T11:44:17.710Z,28.90
2023-05-02T11:46:44.798Z,33.87
2023-05-02T11:49:14.734Z,29.83
2023-05-02T11:51:41.899Z,28.87
2023-05-02T11:54:09.005Z,36.30
2023-05-02T11:56:36.029Z,26.80
2023-05-02T11:59:03.775Z,21.57
2023-05-02T12:01:30.783Z,20.33
2023-05-02T12:04:07.838Z,22.97
2023-05-02T12:06:35.314Z,25.10
2023-05-02T12:09:10.502Z,19.23
2023-05-02T12:11:38.337Z,22.20
2023-05-02T12:14:08.468Z,18.73
2023-05-02T12:16:35.625Z,19.60
2023-05-02T12:19:02.537Z,21.40
2023-05-02T12:21:30.153Z,21.63
2023-05-02T12:23:57.537Z,17.07
2023-05-02T12:26:27.469Z,21.00
2023-05-02T12:28:55.481Z,20.27
2023-05-02T12:31:22.905Z,20.20
2023-05-02T12:33:50.907Z,17.30
2023-05-02T12:36:20.886Z,18.40
2023-05-02T12:38:59.540Z,18.30
2023-05-02T12:41:34.458Z,16.60
2023-05-02T12:44:01.398Z,16.17
2023-05-02T12:46:31.563Z,21.63
2023-05-02T12:49:09.175Z,17.33
2023-05-02T12:51:36.737Z,18.50
2023-05-02T12:54:04.012Z,18.43
2023-05-02T12:56:34.542Z,21.80
2023-05-02T12:59:03.544Z,18.23
2023-05-02T13:01:31.520Z,15.13
2023-05-02T13:03:58.258Z,17.33
2023-05-02T13:06:24.966Z,14.63
2023-05-02T13:08:51.620Z,14.37
2023-05-02T13:11:18.336Z,14.73
2023-05-02T13:13:44.922Z,15.23
2023-05-02T13:16:11.638Z,14.60
2023-05-02T13:18:38.457Z,17.10
2023-05-02T13:21:05.073Z,16.80
2023-05-02T13:23:31.668Z,15.50
2023-05-02T13:25:58.311Z,15.80
2023-05-02T13:28:25.896Z,16.50
2023-05-02T13:30:52.647Z,19.60
2023-05-02T13:33:19.670Z,14.87
2023-05-02T13:35:46.541Z,13.60
2023-05-02T13:38:13.341Z,13.53
2023-05-02T13:40:40.000Z,16.73
2023-05-02T13:43:06.608Z,19.77
2023-05-02T13:45:33.361Z,20.60
2023-05-02T13:47:59.998Z,17.30
2023-05-02T13:50:26.834Z,16.37
2023-05-02T13:52:53.471Z,17.30
2023-05-02T13:55:20.118Z,20.73
2023-05-02T13:57:46.894Z,17.77
2023-05-02T14:00:14.116Z,14.47
2023-05-02T14:02:40.821Z,17.83
2023-05-02T14:05:08.117Z,16.90
2023-05-02T14:07:34.723Z,19.87
2023-05-02T14:10:01.577Z,16.50
2023-05-02T14:12:28.490Z,17.90
2023-05-02T14:14:55.114Z,20.43
2023-05-02T14:17:21.778Z,16.53
2023-05-02T14:19:48.434Z,21.20
2023-05-02T14:22:15.833Z,15.80
2023-05-02T14:24:42.394Z,17.07
2023-05-02T14:27:17.751Z,16.40
2023-05-02T14:29:45.924Z,18.03
2023-05-02T14:32:12.834Z,19.50
2023-05-02T14:34:40.152Z,20.43
2023-05-02T14:37:08.566Z,33.83
2023-05-02T14:39:36.508Z,23.37
2023-05-02T14:42:04.232Z,20.07
2023-05-02T14:44:31.148Z,15.93
2023-05-02T14:46:57.952Z,20.27
2023-05-02T14:49:25.379Z,15.90
2023-05-02T14:51:52.773Z,16.27
2023-05-02T14:54:20.422Z,14.20
2023-05-02T14:56:48.208Z,15.17
2023-05-02T14:59:14.910Z,16.70
2023-05-02T15:01:42.775Z,23.60
2023-05-02T15:04:10.457Z,17.33
2023-05-02T15:06:37.571Z,18.47
2023-05-02T15:09:05.110Z,14.03
2023-05-02T15:11:31.885Z,15.97
2023-05-02T15:13:59.465Z,19.07
2023-05-02T15:16:27.108Z,15.57
2023-05-02T15:18:54.240Z,17.90
2023-05-02T15:21:21.171Z,15.17
2023-05-02T15:23:47.817Z,17.87
2023-05-02T15:26:14.559Z,32.83
2023-05-02T15:28:41.416Z,16.20
2023-05-02T15:31:08.029Z,14.73
2023-05-02T15:33:34.735Z,17.70
2023-05-02T15:36:01.409Z,13.97
2023-05-02T15:38:28.108Z,17.03
2023-05-02T15:40:59.300Z,13.60
2023-05-02T15:43:27.038Z,26.00
2023-05-02T15:45:55.251Z,20.33
2023-05-02T15:48:23.047Z,25.53
2023-05-02T15:50:49.866Z,17.57
2023-05-02T15:53:17.008Z,18.40
2023-05-02T15:55:45.684Z,17.73
2023-05-02T15:58:16.443Z,18.07
2023-05-02T16:00:43.866Z,17.70
2023-05-02T16:03:12.081Z,17.57
2023-05-02T16:05:39.578Z,16.97
2023-05-02T16:08:06.424Z,21.43
2023-05-02T16:10:33.196Z,17.10
2023-05-02T16:12:59.910Z,15.30
2023-05-02T16:15:26.639Z,24.13
2023-05-02T16:17:53.359Z,17.80
2023-05-02T16:20:20.112Z,19.77
2023-05-02T16:22:47.608Z,19.83
2023-05-02T16:25:15.408Z,15.17
2023-05-02T16:27:43.163Z,16.37
2023-05-02T16:30:10.742Z,14.53
2023-05-02T16:32:37.605Z,17.60
2023-05-02T16:35:07.342Z,18.43
2023-05-02T16:37:35.167Z,17.10
2023-05-02T16:40:02.789Z,22.27
2023-05-02T16:42:29.782Z,19.93
2023-05-02T16:44:57.397Z,18.80
2023-05-02T16:47:24.232Z,15.00
2023-05-02T16:50:01.536Z,19.00
2023-05-02T16:52:28.945Z,17.90
2023-05-02T16:54:55.675Z,22.27
2023-05-02T16:57:23.129Z,20.40
2023-05-02T16:59:51.978Z,20.17
2023-05-02T17:02:20.864Z,19.33
2023-05-02T17:04:49.588Z,15.93
2023-05-02T17:07:17.101Z,18.03
2023-05-02T17:09:44.622Z,19.87
2023-05-02T17:12:12.370Z,16.27
2023-05-02T17:14:42.234Z,14.67
2023-05-02T17:17:09.634Z,14.30
2023-05-02T17:19:36.621Z,15.53
2023-05-02T17:22:04.932Z,18.60
2023-05-02T17:24:32.230Z,22.13
2023-05-02T17:26:59.174Z,18.13
2023-05-02T17:29:25.813Z,17.87
2023-05-02T17:31:52.434Z,21.00
2023-05-02T17:34:19.046Z,17.33
2023-05-02T17:36:46.303Z,17.30
2023-05-02T17:39:13.391Z,15.50
2023-05-02T17:41:40.178Z,18.23
2023-05-02T17:44:06.955Z,17.40
2023-05-02T17:46:33.729Z,18.23
2023-05-02T17:49:01.602Z,18.30
2023-05-02T17:51:28.249Z,16.37
2023-05-02T17:53:54.981Z,17.13
2023-05-02T17:56:21.821Z,16.90
2023-05-02T17:58:48.626Z,18.10
2023-05-02T18:01:15.589Z,16.10
2023-05-02T18:03:42.664Z,14.80
2023-05-02T18:06:15.065Z,19.07
2023-05-02T18:08:41.700Z,14.97
2023-05-02T18:11:14.509Z,20.73
2023-05-02T18:13:41.114Z,20.13
2023-05-02T18:16:07.942Z,14.40
2023-05-02T18:18:36.266Z,15.97
2023-05-02T18:21:03.574Z,12.67
2023-05-02T18:23:30.250Z,17.20
2023-05-02T18:25:56.864Z,11.90
2023-05-02T18:28:23.540Z,16.43
2023-05-02T18:30:50.344Z,16.70
2023-05-02T18:33:17.017Z,14.50
2023-05-02T18:35:49.162Z,13.77
2023-05-02T18:38:16.124Z,14.23
2023-05-02T18:40:43.978Z,11.70
2023-05-02T18:43:10.616Z,13.57
2023-05-02T18:45:37.176Z,15.60
2023-05-02T18:48:03.971Z,16.40
2023-05-02T18:50:30.703Z,18.63
2023-05-02T18:52:57.427Z,13.60
2023-05-02T18:55:25.283Z,13.20
2023-05-02T18:57:52.107Z,16.03
2023-05-02T19:00:20.223Z,13.60
2023-05-02T19:02:47.499Z,18.37
2023-05-02T19:05:14.872Z,18.93
2023-05-02T19:07:41.502Z,12.50
2023-05-02T19:10:08.451Z,11.33
2023-05-02T19:12:35.036Z,14.27
2023-05-02T19:15:02.660Z,13.60
2023-05-02T19:17:29.841Z,14.00
2023-05-02T19:19:58.276Z,13.47
2023-05-02T19:22:27.429Z,13.57
2023-05-02T19:24:54.244Z,12.67
2023-05-02T19:27:20.996Z,13.13
2023-05-02T19:29:47.596Z,13.50
2023-05-02T19:32:14.754Z,17.03
2023-05-02T19:34:41.991Z,13.20
2023-05-02T19:37:08.723Z,13.53
2023-05-02T19:39:35.348Z,12.60
2023-05-02T19:42:03.086Z,12.10
2023-05-02T19:44:30.035Z,11.93
2023-05-02T19:46:56.827Z,11.80
2023-05-02T19:49:23.474Z,14.23
2023-05-02T19:51:50.196Z,13.63
2023-05-02T19:54:16.807Z,15.55
2023-05-02T19:56:43.539Z,13.53
2023-05-02T19:59:10.140Z,13.75
2023-05-02T20:01:37.129Z,12.15
2023-05-02T20:04:03.957Z,15.77
2023-05-02T20:06:31.951Z,12.10
2023-05-02T20:08:58.711Z,16.40
2023-05-02T20:11:25.928Z,12.70
2023-05-02T20:13:52.532Z,13.10
2023-05-02T20:16:19.205Z,12.25
2023-05-02T20:18:45.962Z,12.25
2023-05-02T20:21:12.630Z,14.48
2023-05-02T20:23:43.152Z,10.20
2023-05-02T20:26:10.478Z,15.15
2023-05-02T20:28:37.745Z,14.10
2023-05-02T20:31:04.637Z,16.48
2023-05-02T20:33:43.727Z,19.55
2023-05-02T20:36:12.813Z,12.93
2023-05-02T20:38:42.254Z,16.58
2023-05-02T20:41:12.201Z,15.73
2023-05-02T20:43:39.657Z,11.35
2023-05-02T20:46:13.622Z,12.90
2023-05-02T20:48:40.265Z,13.15
2023-05-02T20:51:08.520Z,11.43
2023-05-02T20:53:39.009Z,13.23
2023-05-02T20:56:06.204Z,12.38
2023-05-02T20:58:33.471Z,13.38
2023-05-02T21:01:00.115Z,12.50
2023-05-02T21:03:27.753Z,14.13
2023-05-02T21:05:56.163Z,14.70
2023-05-02T21:08:23.236Z,11.25
2023-05-02T21:10:49.946Z,13.45
2023-05-02T21:13:16.603Z,16.27
2023-05-02T21:15:43.247Z,13.25
2023-05-02T21:18:09.904Z,12.90
2023-05-02T21:20:38.142Z,15.15
2023-05-02T21:23:04.926Z,20.88
2023-05-02T21:25:31.672Z,16.55
2023-05-02T21:27:58.380Z,12.10
2023-05-02T21:30:25.004Z,13.35
2023-05-02T21:32:51.694Z,18.65
2023-05-02T21:35:18.346Z,19.33
2023-05-02T21:37:46.129Z,19.38
2023-05-02T21:40:13.129Z,13.90
2023-05-02T21:42:40.661Z,14.40
2023-05-02T21:45:08.067Z,16.58
2023-05-02T21:47:34.724Z,18.83
2023-05-02T21:50:01.462Z,13.55
2023-05-02T21:52:31.669Z,13.55
2023-05-02T21:54:58.356Z,19.48
2023-05-02T21:57:24.951Z,15.18
2023-05-02T21:59:51.584Z,17.55
2023-05-02T22:02:18.223Z,17.55
2023-05-02T22:04:48.044Z,17.27
2023-05-02T22:07:15.915Z,18.95
2023-05-02T22:09:42.726Z,18.25
2023-05-02T22:12:09.361Z,17.33
2023-05-02T22:14:44.348Z,14.75
2023-05-02T22:17:12.633Z,13.90
2023-05-02T22:19:40.498Z,21.67
2023-05-02T22:22:07.232Z,15.88
2023-05-02T22:24:33.995Z,14.18
2023-05-02T22:27:00.821Z,21.42
2023-05-02T22:29:27.499Z,17.30
2023-05-02T22:31:54.256Z,16.55
2023-05-02T22:34:20.911Z,15.55
2023-05-02T22:36:47.498Z,15.00
2023-05-02T22:39:15.666Z,17.45
2023-05-02T22:41:42.981Z,17.88
2023-05-02T22:44:10.904Z,14.10
2023-05-02T22:46:38.669Z,14.48
2023-05-02T22:49:09.421Z,12.93
2023-05-02T22:51:37.916Z,15.52
2023-05-02T22:54:05.918Z,11.77
2023-05-02T22:56:32.702Z,16.23
2023-05-02T22:58:59.299Z,18.05
2023-05-02T23:01:27.369Z,13.50
2023-05-02T23:03:54.070Z,16.45
2023-05-02T23:06:20.993Z,14.60
2023-05-02T23:08:47.675Z,12.70
2023-05-02T23:11:14.244Z,13.25
2023-05-02T23:13:40.846Z,14.30
2023-05-02T23:16:07.484Z,16.00
2023-05-02T23:18:34.134Z,15.15
2023-05-02T23:21:01.372Z,14.55
2023-05-02T23:23:28.043Z,13.73
2023-05-02T23:25:54.762Z,16.58
2023-05-02T23:28:21.507Z,17.17
2023-05-02T23:30:48.692Z,13.13
2023-05-02T23:33:16.306Z,13.52
2023-05-02T23:35:43.040Z,14.25
2023-05-02T23:38:09.691Z,18.65
2023-05-02T23:40:36.367Z,15.02
2023-05-02T23:43:03.149Z,19.00
2023-05-02T23:45:29.832Z,14.88
2023-05-02T23:47:56.481Z,18.15
2023-05-02T23:50:23.140Z,15.95
2023-05-02T23:52:49.735Z,15.73
2023-05-02T23:55:16.436Z,12.63
2023-05-02T23:57:42.995Z,13.57
